sensor_id;sensor_type;location;lat;lon;timestamp;temperature;humidity
12849;DHT22;6493;50.928;7.172;2023-07-13T00:00:57;15.90;41.60
12849;DHT22;6493;50.928;7.172;2023-07-13T00:06:02;15.80;41.70
12849;DHT22;6493;50.928;7.172;2023-07-13T00:11:06;15.70;41.80
12849;DHT22;6493;50.928;7.172;2023-07-13T00:16:11;15.60;41.70
12849;DHT22;6493;50.928;7.172;2023-07-13T00:21:17;15.50;41.70
12849;DHT22;6493;50.928;7.172;2023-07-13T00:26:21;15.40;41.80
12849;DHT22;6493;50.928;7.172;2023-07-13T00:44:39;15.10;42.40
12849;DHT22;6493;50.928;7.172;2023-07-13T00:49:42;15.10;42.20
12849;DHT22;6493;50.928;7.172;2023-07-13T00:54:46;15.00;42.20
12849;DHT22;6493;50.928;7.172;2023-07-13T00:59:55;14.90;42.30
12849;DHT22;6493;50.928;7.172;2023-07-13T01:05:00;14.90;42.60
12849;DHT22;6493;50.928;7.172;2023-07-13T01:10:06;14.80;42.50
12849;DHT22;6493;50.928;7.172;2023-07-13T01:15:36;14.80;42.60
12849;DHT22;6493;50.928;7.172;2023-07-13T01:20:41;14.70;42.90
12849;DHT22;6493;50.928;7.172;2023-07-13T01:25:46;14.70;42.70
12849;DHT22;6493;50.928;7.172;2023-07-13T01:30:50;14.60;42.70
12849;DHT22;6493;50.928;7.172;2023-07-13T01:35:54;14.60;42.80
12849;DHT22;6493;50.928;7.172;2023-07-13T01:41:01;14.50;42.80
12849;DHT22;6493;50.928;7.172;2023-07-13T01:46:05;14.50;43.00
12849;DHT22;6493;50.928;7.172;2023-07-13T01:51:25;14.30;42.90
12849;DHT22;6493;50.928;7.172;2023-07-13T01:56:30;14.30;43.00
12849;DHT22;6493;50.928;7.172;2023-07-13T02:01:33;14.20;43.10
12849;DHT22;6493;50.928;7.172;2023-07-13T02:06:37;14.20;43.30
12849;DHT22;6493;50.928;7.172;2023-07-13T02:11:42;14.10;43.30
12849;DHT22;6493;50.928;7.172;2023-07-13T02:16:46;14.10;43.40
12849;DHT22;6493;50.928;7.172;2023-07-13T02:21:50;14.10;43.50
12849;DHT22;6493;50.928;7.172;2023-07-13T02:26:56;14.10;43.50
12849;DHT22;6493;50.928;7.172;2023-07-13T02:31:59;14.00;43.60
12849;DHT22;6493;50.928;7.172;2023-07-13T02:37:03;14.00;43.70
12849;DHT22;6493;50.928;7.172;2023-07-13T02:42:08;13.90;43.70
12849;DHT22;6493;50.928;7.172;2023-07-13T02:47:12;13.90;43.80
12849;DHT22;6493;50.928;7.172;2023-07-13T02:52:16;13.90;43.90
12849;DHT22;6493;50.928;7.172;2023-07-13T02:57:21;13.90;44.00
12849;DHT22;6493;50.928;7.172;2023-07-13T03:02:25;13.80;44.10
12849;DHT22;6493;50.928;7.172;2023-07-13T03:07:30;13.80;44.10
12849;DHT22;6493;50.928;7.172;2023-07-13T03:12:36;13.80;44.20
12849;DHT22;6493;50.928;7.172;2023-07-13T03:17:45;13.70;44.30
12849;DHT22;6493;50.928;7.172;2023-07-13T03:22:48;13.70;44.30
12849;DHT22;6493;50.928;7.172;2023-07-13T03:27:55;13.60;44.30
12849;DHT22;6493;50.928;7.172;2023-07-13T03:32:59;13.60;44.50
12849;DHT22;6493;50.928;7.172;2023-07-13T03:38:03;13.50;44.40
12849;DHT22;6493;50.928;7.172;2023-07-13T03:43:08;13.50;44.50
12849;DHT22;6493;50.928;7.172;2023-07-13T03:48:12;13.40;44.60
12849;DHT22;6493;50.928;7.172;2023-07-13T03:53:16;13.50;44.70
12849;DHT22;6493;50.928;7.172;2023-07-13T03:58:30;13.40;44.80
12849;DHT22;6493;50.928;7.172;2023-07-13T04:03:41;13.40;45.20
12849;DHT22;6493;50.928;7.172;2023-07-13T04:08:45;13.40;45.10
12849;DHT22;6493;50.928;7.172;2023-07-13T04:13:50;13.40;45.20
12849;DHT22;6493;50.928;7.172;2023-07-13T04:18:55;13.60;46.00
12849;DHT22;6493;50.928;7.172;2023-07-13T04:24:03;13.90;46.50
12849;DHT22;6493;50.928;7.172;2023-07-13T04:29:08;14.50;47.00
12849;DHT22;6493;50.928;7.172;2023-07-13T04:34:11;15.10;47.30
12849;DHT22;6493;50.928;7.172;2023-07-13T04:39:15;15.70;47.60
12849;DHT22;6493;50.928;7.172;2023-07-13T04:44:20;16.30;47.60
12849;DHT22;6493;50.928;7.172;2023-07-13T04:49:24;17.00;47.80
12849;DHT22;6493;50.928;7.172;2023-07-13T04:54:27;17.60;47.60
12849;DHT22;6493;50.928;7.172;2023-07-13T04:59:32;18.20;47.50
12849;DHT22;6493;50.928;7.172;2023-07-13T05:04:36;18.70;47.50
12849;DHT22;6493;50.928;7.172;2023-07-13T05:09:40;19.20;47.30
12849;DHT22;6493;50.928;7.172;2023-07-13T05:14:45;19.70;47.00
12849;DHT22;6493;50.928;7.172;2023-07-13T05:19:51;20.20;46.90
12849;DHT22;6493;50.928;7.172;2023-07-13T05:24:55;20.60;46.60
12849;DHT22;6493;50.928;7.172;2023-07-13T05:30:00;21.10;46.30
12849;DHT22;6493;50.928;7.172;2023-07-13T05:35:04;21.50;46.00
12849;DHT22;6493;50.928;7.172;2023-07-13T05:40:08;21.90;46.20
12849;DHT22;6493;50.928;7.172;2023-07-13T05:45:13;22.40;46.10
12849;DHT22;6493;50.928;7.172;2023-07-13T05:50:17;22.80;45.50
12849;DHT22;6493;50.928;7.172;2023-07-13T05:55:21;23.00;44.30
12849;DHT22;6493;50.928;7.172;2023-07-13T06:00:26;22.90;43.50
12849;DHT22;6493;50.928;7.172;2023-07-13T06:05:29;22.60;42.60
12849;DHT22;6493;50.928;7.172;2023-07-13T06:10:33;22.30;42.90
12849;DHT22;6493;50.928;7.172;2023-07-13T06:15:38;22.00;43.20
12849;DHT22;6493;50.928;7.172;2023-07-13T06:20:42;22.10;43.70
12849;DHT22;6493;50.928;7.172;2023-07-13T06:25:46;22.10;42.90
12849;DHT22;6493;50.928;7.172;2023-07-13T06:30:51;21.90;42.40
12849;DHT22;6493;50.928;7.172;2023-07-13T06:35:54;21.50;41.90
12849;DHT22;6493;50.928;7.172;2023-07-13T06:40:58;21.00;41.80
12849;DHT22;6493;50.928;7.172;2023-07-13T06:46:03;20.70;42.50
12849;DHT22;6493;50.928;7.172;2023-07-13T06:51:07;20.60;42.70
12849;DHT22;6493;50.928;7.172;2023-07-13T06:56:11;20.50;42.80
12849;DHT22;6493;50.928;7.172;2023-07-13T07:01:16;20.40;42.60
12849;DHT22;6493;50.928;7.172;2023-07-13T07:06:21;20.10;42.50
12849;DHT22;6493;50.928;7.172;2023-07-13T07:11:26;19.80;42.60
12849;DHT22;6493;50.928;7.172;2023-07-13T07:16:31;19.80;43.30
12849;DHT22;6493;50.928;7.172;2023-07-13T07:21:35;19.80;43.60
12849;DHT22;6493;50.928;7.172;2023-07-13T07:26:38;20.00;43.90
12849;DHT22;6493;50.928;7.172;2023-07-13T07:31:46;20.20;43.90
12849;DHT22;6493;50.928;7.172;2023-07-13T07:37:03;20.40;43.60
12849;DHT22;6493;50.928;7.172;2023-07-13T07:42:10;20.30;43.30
12849;DHT22;6493;50.928;7.172;2023-07-13T07:47:16;20.10;43.40
12849;DHT22;6493;50.928;7.172;2023-07-13T07:52:20;20.10;43.70
12849;DHT22;6493;50.928;7.172;2023-07-13T07:57:23;20.00;43.70
12849;DHT22;6493;50.928;7.172;2023-07-13T08:02:31;19.90;43.70
12849;DHT22;6493;50.928;7.172;2023-07-13T08:07:38;19.90;43.80
12849;DHT22;6493;50.928;7.172;2023-07-13T08:12:42;19.90;43.80
12849;DHT22;6493;50.928;7.172;2023-07-13T08:18:07;20.00;43.80
12849;DHT22;6493;50.928;7.172;2023-07-13T08:23:12;20.00;43.80
12849;DHT22;6493;50.928;7.172;2023-07-13T08:28:15;20.00;44.00
12849;DHT22;6493;50.928;7.172;2023-07-13T08:33:21;20.00;43.90
12849;DHT22;6493;50.928;7.172;2023-07-13T08:38:26;20.00;44.10
12849;DHT22;6493;50.928;7.172;2023-07-13T08:43:32;20.10;44.10
12849;DHT22;6493;50.928;7.172;2023-07-13T08:48:43;20.30;44.50
12849;DHT22;6493;50.928;7.172;2023-07-13T08:53:50;20.50;44.40
12849;DHT22;6493;50.928;7.172;2023-07-13T08:58:58;20.70;44.00
12849;DHT22;6493;50.928;7.172;2023-07-13T09:04:06;20.80;44.30
12849;DHT22;6493;50.928;7.172;2023-07-13T09:09:20;20.80;43.60
12849;DHT22;6493;50.928;7.172;2023-07-13T09:14:35;20.90;44.00
12849;DHT22;6493;50.928;7.172;2023-07-13T09:19:42;21.10;44.40
12849;DHT22;6493;50.928;7.172;2023-07-13T09:24:54;21.40;44.10
12849;DHT22;6493;50.928;7.172;2023-07-13T09:30:15;21.60;43.80
12849;DHT22;6493;50.928;7.172;2023-07-13T09:35:25;21.70;43.10
12849;DHT22;6493;50.928;7.172;2023-07-13T09:40:39;21.60;43.00
12849;DHT22;6493;50.928;7.172;2023-07-13T09:45:46;21.60;43.10
12849;DHT22;6493;50.928;7.172;2023-07-13T09:50:54;21.60;43.30
12849;DHT22;6493;50.928;7.172;2023-07-13T09:55:59;21.60;43.10
12849;DHT22;6493;50.928;7.172;2023-07-13T10:01:03;21.60;43.10
12849;DHT22;6493;50.928;7.172;2023-07-13T10:06:15;21.60;43.30
12849;DHT22;6493;50.928;7.172;2023-07-13T10:11:21;21.70;43.40
12849;DHT22;6493;50.928;7.172;2023-07-13T10:16:28;21.80;43.40
12849;DHT22;6493;50.928;7.172;2023-07-13T10:21:41;21.90;43.20
12849;DHT22;6493;50.928;7.172;2023-07-13T10:26:50;22.10;43.20
12849;DHT22;6493;50.928;7.172;2023-07-13T10:31:55;22.20;42.90
12849;DHT22;6493;50.928;7.172;2023-07-13T10:37:01;22.10;42.50
12849;DHT22;6493;50.928;7.172;2023-07-13T10:42:10;21.90;43.00
12849;DHT22;6493;50.928;7.172;2023-07-13T10:47:17;21.90;42.00
12849;DHT22;6493;50.928;7.172;2023-07-13T10:52:43;21.80;42.00
12849;DHT22;6493;50.928;7.172;2023-07-13T10:57:48;21.80;42.40
12849;DHT22;6493;50.928;7.172;2023-07-13T11:02:56;22.10;42.90
12849;DHT22;6493;50.928;7.172;2023-07-13T11:08:16;22.40;42.90
12849;DHT22;6493;50.928;7.172;2023-07-13T11:19:24;23.00;41.60
12849;DHT22;6493;50.928;7.172;2023-07-13T11:24:48;23.20;42.00
12849;DHT22;6493;50.928;7.172;2023-07-13T11:29:52;23.40;41.40
12849;DHT22;6493;50.928;7.172;2023-07-13T11:35:13;23.60;41.90
12849;DHT22;6493;50.928;7.172;2023-07-13T11:40:22;23.60;40.90
12849;DHT22;6493;50.928;7.172;2023-07-13T11:45:28;23.30;40.60
12849;DHT22;6493;50.928;7.172;2023-07-13T11:50:54;23.00;40.80
12849;DHT22;6493;50.928;7.172;2023-07-13T11:56:00;22.80;40.60
12849;DHT22;6493;50.928;7.172;2023-07-13T12:01:04;22.60;40.90
12849;DHT22;6493;50.928;7.172;2023-07-13T12:06:23;22.40;41.00
12849;DHT22;6493;50.928;7.172;2023-07-13T12:11:30;22.30;41.40
12849;DHT22;6493;50.928;7.172;2023-07-13T12:16:43;22.20;40.90
12849;DHT22;6493;50.928;7.172;2023-07-13T12:21:49;22.00;40.90
12849;DHT22;6493;50.928;7.172;2023-07-13T12:26:59;21.90;40.90
12849;DHT22;6493;50.928;7.172;2023-07-13T12:32:09;21.80;40.90
12849;DHT22;6493;50.928;7.172;2023-07-13T12:37:13;21.70;41.00
12849;DHT22;6493;50.928;7.172;2023-07-13T12:42:21;21.70;41.20
12849;DHT22;6493;50.928;7.172;2023-07-13T12:47:30;21.60;40.80
12849;DHT22;6493;50.928;7.172;2023-07-13T12:52:35;21.50;40.80
12849;DHT22;6493;50.928;7.172;2023-07-13T12:57:41;21.40;40.90
12849;DHT22;6493;50.928;7.172;2023-07-13T13:02:50;21.30;41.20
12849;DHT22;6493;50.928;7.172;2023-07-13T13:07:54;21.40;41.40
12849;DHT22;6493;50.928;7.172;2023-07-13T13:12:59;21.50;41.30
12849;DHT22;6493;50.928;7.172;2023-07-13T13:18:03;21.60;41.20
12849;DHT22;6493;50.928;7.172;2023-07-13T13:23:11;21.60;41.30
12849;DHT22;6493;50.928;7.172;2023-07-13T13:28:18;21.70;41.00
12849;DHT22;6493;50.928;7.172;2023-07-13T13:33:22;21.70;40.80
12849;DHT22;6493;50.928;7.172;2023-07-13T13:38:27;21.70;40.80
12849;DHT22;6493;50.928;7.172;2023-07-13T13:43:32;21.70;40.60
12849;DHT22;6493;50.928;7.172;2023-07-13T13:48:36;21.80;40.40
12849;DHT22;6493;50.928;7.172;2023-07-13T13:53:44;22.00;40.80
12849;DHT22;6493;50.928;7.172;2023-07-13T13:58:49;22.10;40.80
12849;DHT22;6493;50.928;7.172;2023-07-13T14:03:52;22.30;40.40
12849;DHT22;6493;50.928;7.172;2023-07-13T14:08:56;22.40;39.90
12849;DHT22;6493;50.928;7.172;2023-07-13T14:14:01;22.40;39.60
12849;DHT22;6493;50.928;7.172;2023-07-13T14:19:08;22.30;39.60
12849;DHT22;6493;50.928;7.172;2023-07-13T14:24:13;22.20;39.90
12849;DHT22;6493;50.928;7.172;2023-07-13T14:29:19;22.20;39.80
12849;DHT22;6493;50.928;7.172;2023-07-13T14:34:26;22.20;39.80
12849;DHT22;6493;50.928;7.172;2023-07-13T14:39:30;22.20;39.90
12849;DHT22;6493;50.928;7.172;2023-07-13T14:44:37;22.20;40.00
12849;DHT22;6493;50.928;7.172;2023-07-13T14:49:42;22.20;39.80
12849;DHT22;6493;50.928;7.172;2023-07-13T14:54:47;22.20;39.80
12849;DHT22;6493;50.928;7.172;2023-07-13T14:59:52;22.20;40.00
12849;DHT22;6493;50.928;7.172;2023-07-13T15:04:56;22.30;39.70
12849;DHT22;6493;50.928;7.172;2023-07-13T15:09:59;22.30;39.60
12849;DHT22;6493;50.928;7.172;2023-07-13T15:15:05;22.30;39.80
12849;DHT22;6493;50.928;7.172;2023-07-13T15:20:19;22.30;39.60
12849;DHT22;6493;50.928;7.172;2023-07-13T15:25:24;22.20;39.50
12849;DHT22;6493;50.928;7.172;2023-07-13T15:30:31;22.20;39.50
12849;DHT22;6493;50.928;7.172;2023-07-13T15:35:36;22.10;39.50
12849;DHT22;6493;50.928;7.172;2023-07-13T15:40:39;22.00;39.60
12849;DHT22;6493;50.928;7.172;2023-07-13T15:45:45;22.00;39.60
12849;DHT22;6493;50.928;7.172;2023-07-13T15:50:50;22.00;39.70
12849;DHT22;6493;50.928;7.172;2023-07-13T15:55:55;22.00;39.60
12849;DHT22;6493;50.928;7.172;2023-07-13T16:01:00;22.00;39.40
12849;DHT22;6493;50.928;7.172;2023-07-13T16:06:11;22.00;39.40
12849;DHT22;6493;50.928;7.172;2023-07-13T16:11:18;22.00;39.40
12849;DHT22;6493;50.928;7.172;2023-07-13T16:16:27;21.90;39.30
12849;DHT22;6493;50.928;7.172;2023-07-13T16:21:33;21.80;39.30
12849;DHT22;6493;50.928;7.172;2023-07-13T16:26:38;21.70;39.20
12849;DHT22;6493;50.928;7.172;2023-07-13T16:31:57;21.60;39.40
12849;DHT22;6493;50.928;7.172;2023-07-13T16:37:03;21.40;39.60
12849;DHT22;6493;50.928;7.172;2023-07-13T16:42:09;21.30;39.70
12849;DHT22;6493;50.928;7.172;2023-07-13T16:47:16;21.10;39.90
12849;DHT22;6493;50.928;7.172;2023-07-13T16:52:20;20.90;40.00
12849;DHT22;6493;50.928;7.172;2023-07-13T16:57:27;20.80;40.10
12849;DHT22;6493;50.928;7.172;2023-07-13T17:02:36;20.60;40.30
12849;DHT22;6493;50.928;7.172;2023-07-13T17:07:41;20.60;40.50
12849;DHT22;6493;50.928;7.172;2023-07-13T17:12:48;20.40;40.50
12849;DHT22;6493;50.928;7.172;2023-07-13T17:17:53;20.40;40.60
12849;DHT22;6493;50.928;7.172;2023-07-13T17:23:11;20.30;40.60
12849;DHT22;6493;50.928;7.172;2023-07-13T17:28:18;20.20;40.70
12849;DHT22;6493;50.928;7.172;2023-07-13T17:33:28;20.20;40.80
12849;DHT22;6493;50.928;7.172;2023-07-13T17:38:36;20.10;41.10
12849;DHT22;6493;50.928;7.172;2023-07-13T17:43:42;20.10;41.10
12849;DHT22;6493;50.928;7.172;2023-07-13T17:48:48;20.10;41.10
12849;DHT22;6493;50.928;7.172;2023-07-13T17:53:54;20.00;41.10
12849;DHT22;6493;50.928;7.172;2023-07-13T17:58:58;20.00;41.30
12849;DHT22;6493;50.928;7.172;2023-07-13T18:04:04;20.00;41.30
12849;DHT22;6493;50.928;7.172;2023-07-13T18:09:14;19.90;41.20
12849;DHT22;6493;50.928;7.172;2023-07-13T18:14:19;19.80;41.30
12849;DHT22;6493;50.928;7.172;2023-07-13T18:19:31;19.80;41.30
12849;DHT22;6493;50.928;7.172;2023-07-13T18:24:36;19.70;41.50
12849;DHT22;6493;50.928;7.172;2023-07-13T18:29:39;19.60;41.40
12849;DHT22;6493;50.928;7.172;2023-07-13T18:34:46;19.50;41.40
12849;DHT22;6493;50.928;7.172;2023-07-13T18:39:52;19.40;41.50
12849;DHT22;6493;50.928;7.172;2023-07-13T18:44:55;19.40;41.50
12849;DHT22;6493;50.928;7.172;2023-07-13T18:50:01;19.30;41.50
12849;DHT22;6493;50.928;7.172;2023-07-13T18:55:12;19.30;41.60
12849;DHT22;6493;50.928;7.172;2023-07-13T19:00:17;19.20;41.70
12849;DHT22;6493;50.928;7.172;2023-07-13T19:05:30;19.20;41.70
12849;DHT22;6493;50.928;7.172;2023-07-13T19:10:52;19.10;41.80
12849;DHT22;6493;50.928;7.172;2023-07-13T19:15:56;19.00;41.80
12849;DHT22;6493;50.928;7.172;2023-07-13T19:21:07;19.00;41.80
12849;DHT22;6493;50.928;7.172;2023-07-13T19:26:18;18.90;42.10
12849;DHT22;6493;50.928;7.172;2023-07-13T19:31:24;18.90;42.00
12849;DHT22;6493;50.928;7.172;2023-07-13T19:36:30;18.80;42.00
12849;DHT22;6493;50.928;7.172;2023-07-13T19:41:36;18.70;42.00
12849;DHT22;6493;50.928;7.172;2023-07-13T19:46:40;18.70;42.10
12849;DHT22;6493;50.928;7.172;2023-07-13T19:51:45;18.60;42.10
12849;DHT22;6493;50.928;7.172;2023-07-13T19:56:49;18.50;42.20
12849;DHT22;6493;50.928;7.172;2023-07-13T20:01:53;18.40;42.20
12849;DHT22;6493;50.928;7.172;2023-07-13T20:06:58;18.40;42.20
12849;DHT22;6493;50.928;7.172;2023-07-13T20:12:10;18.30;42.30
12849;DHT22;6493;50.928;7.172;2023-07-13T20:17:27;18.30;42.50
12849;DHT22;6493;50.928;7.172;2023-07-13T20:22:32;18.20;42.60
12849;DHT22;6493;50.928;7.172;2023-07-13T20:27:36;18.20;42.60
12849;DHT22;6493;50.928;7.172;2023-07-13T20:32:40;18.20;42.60
12849;DHT22;6493;50.928;7.172;2023-07-13T20:37:45;18.20;42.70
12849;DHT22;6493;50.928;7.172;2023-07-13T20:42:52;18.10;42.80
12849;DHT22;6493;50.928;7.172;2023-07-13T20:48:00;18.10;42.80
12849;DHT22;6493;50.928;7.172;2023-07-13T20:53:09;18.00;42.90
12849;DHT22;6493;50.928;7.172;2023-07-13T20:58:13;17.90;43.00
12849;DHT22;6493;50.928;7.172;2023-07-13T21:03:20;17.90;43.00
12849;DHT22;6493;50.928;7.172;2023-07-13T21:08:26;17.80;43.00
12849;DHT22;6493;50.928;7.172;2023-07-13T21:13:30;17.70;43.00
12849;DHT22;6493;50.928;7.172;2023-07-13T21:18:41;17.60;43.10
12849;DHT22;6493;50.928;7.172;2023-07-13T21:23:47;17.50;43.20
12849;DHT22;6493;50.928;7.172;2023-07-13T21:28:54;17.40;43.10
12849;DHT22;6493;50.928;7.172;2023-07-13T21:33:59;17.30;43.20
12849;DHT22;6493;50.928;7.172;2023-07-13T21:39:05;17.20;43.30
12849;DHT22;6493;50.928;7.172;2023-07-13T21:44:23;17.10;43.40
12849;DHT22;6493;50.928;7.172;2023-07-13T21:49:26;17.00;43.80
12849;DHT22;6493;50.928;7.172;2023-07-13T21:54:31;16.90;43.40
12849;DHT22;6493;50.928;7.172;2023-07-13T21:59:35;16.80;43.50
12849;DHT22;6493;50.928;7.172;2023-07-13T22:04:39;16.70;43.50
12849;DHT22;6493;50.928;7.172;2023-07-13T22:09:44;16.50;43.60
12849;DHT22;6493;50.928;7.172;2023-07-13T22:14:47;16.40;43.80
12849;DHT22;6493;50.928;7.172;2023-07-13T22:19:51;16.30;43.90
12849;DHT22;6493;50.928;7.172;2023-07-13T22:24:56;16.20;44.00
12849;DHT22;6493;50.928;7.172;2023-07-13T22:30:00;16.10;44.20
12849;DHT22;6493;50.928;7.172;2023-07-13T22:35:04;16.00;44.10
12849;DHT22;6493;50.928;7.172;2023-07-13T22:40:14;15.80;44.30
12849;DHT22;6493;50.928;7.172;2023-07-13T22:45:18;15.70;44.60
12849;DHT22;6493;50.928;7.172;2023-07-13T22:50:22;15.60;44.50
12849;DHT22;6493;50.928;7.172;2023-07-13T22:55:27;15.60;44.70
12849;DHT22;6493;50.928;7.172;2023-07-13T23:00:31;15.50;44.80
12849;DHT22;6493;50.928;7.172;2023-07-13T23:05:36;15.40;44.80
12849;DHT22;6493;50.928;7.172;2023-07-13T23:10:42;15.40;45.10
12849;DHT22;6493;50.928;7.172;2023-07-13T23:15:46;15.20;45.00
12849;DHT22;6493;50.928;7.172;2023-07-13T23:20:52;15.10;45.10
12849;DHT22;6493;50.928;7.172;2023-07-13T23:25:57;15.10;45.20
12849;DHT22;6493;50.928;7.172;2023-07-13T23:31:00;15.00;45.30
12849;DHT22;6493;50.928;7.172;2023-07-13T23:36:14;14.90;45.40
12849;DHT22;6493;50.928;7.172;2023-07-13T23:41:21;14.90;45.60
12849;DHT22;6493;50.928;7.172;2023-07-13T23:46:29;14.80;45.50
12849;DHT22;6493;50.928;7.172;2023-07-13T23:51:34;14.80;45.70
12849;DHT22;6493;50.928;7.172;2023-07-13T23:56:40;14.70;45.60
